createdAt,value
2019-05-17T00:01:16.638Z,31.67
2019-05-17T00:03:56.396Z,31.53
2019-05-17T00:06:27.534Z,28.30
2019-05-17T00:08:58.456Z,30.50
2019-05-17T00:11:28.981Z,30.03
2019-05-17T00:13:59.726Z,31.10
2019-05-17T00:16:34.173Z,28.63
2019-05-17T00:19:04.775Z,31.20
2019-05-17T00:21:38.933Z,27.37
2019-05-17T00:24:09.735Z,25.97
2019-05-17T00:26:40.564Z,27.13
2019-05-17T00:29:11.224Z,28.97
2019-05-17T00:31:43.443Z,27.20
2019-05-17T00:34:16.774Z,30.47
2019-05-17T00:36:47.816Z,27.43
2019-05-17T00:39:18.545Z,26.23
2019-05-17T00:41:49.244Z,25.20
2019-05-17T00:44:19.929Z,27.10
2019-05-17T00:46:50.509Z,27.43
2019-05-17T00:49:22.093Z,25.93
2019-05-17T00:51:53.782Z,30.47
2019-05-17T00:54:26.783Z,28.27
2019-05-17T00:57:03.404Z,30.27
2019-05-17T00:59:34.171Z,29.23
2019-05-17T01:02:06.864Z,28.03
2019-05-17T01:04:37.338Z,30.13
2019-05-17T01:07:08.026Z,30.63
2019-05-17T01:09:38.534Z,30.53
2019-05-17T01:12:10.313Z,29.73
2019-05-17T01:14:41.076Z,29.67
2019-05-17T01:17:11.666Z,33.73
2019-05-17T01:19:42.244Z,29.70
2019-05-17T01:22:13.974Z,28.70
2019-05-17T01:24:46.295Z,29.67
2019-05-17T01:27:18.005Z,30.70
2019-05-17T01:29:48.610Z,30.10
2019-05-17T01:32:19.315Z,30.33
2019-05-17T01:34:56.311Z,29.60
2019-05-17T01:37:27.687Z,29.00
2019-05-17T01:39:58.488Z,29.07
2019-05-17T01:42:29.269Z,30.97
2019-05-17T01:45:09.580Z,32.43
2019-05-17T01:47:40.260Z,31.77
2019-05-17T01:50:11.494Z,36.43
2019-05-17T01:52:42.114Z,34.13
2019-05-17T01:55:12.794Z,34.70
2019-05-17T01:57:43.513Z,34.70
2019-05-17T02:00:17.760Z,34.57
2019-05-17T02:02:53.554Z,36.57
2019-05-17T02:05:27.512Z,34.77
2019-05-17T02:08:17.088Z,35.60
2019-05-17T02:10:48.003Z,37.07
2019-05-17T02:13:20.572Z,34.80
2019-05-17T02:15:51.209Z,36.33
2019-05-17T02:18:22.825Z,36.63
2019-05-17T02:20:53.539Z,36.97
2019-05-17T02:23:24.363Z,36.67
2019-05-17T02:25:57.187Z,34.73
2019-05-17T02:28:28.995Z,34.23
2019-05-17T02:31:03.574Z,35.73
2019-05-17T02:33:37.349Z,38.00
2019-05-17T02:36:08.036Z,35.70
2019-05-17T02:38:38.723Z,37.67
2019-05-17T02:41:09.401Z,37.50
2019-05-17T02:43:43.181Z,39.70
2019-05-17T02:46:13.909Z,38.47
2019-05-17T02:48:44.659Z,37.20
2019-05-17T02:51:15.419Z,39.57
2019-05-17T02:53:46.097Z,38.33
2019-05-17T02:56:16.781Z,38.43
2019-05-17T02:58:47.529Z,38.90
2019-05-17T03:01:19.270Z,40.40
2019-05-17T03:03:55.819Z,42.73
2019-05-17T03:06:26.580Z,38.63
2019-05-17T03:08:57.149Z,41.53
2019-05-17T03:11:27.933Z,40.30
2019-05-17T03:13:58.522Z,44.50
2019-05-17T03:16:29.371Z,41.20
2019-05-17T03:19:03.803Z,43.33
2019-05-17T03:21:33.721Z,41.87
2019-05-17T03:24:04.957Z,43.40
2019-05-17T03:26:35.624Z,38.90
2019-05-17T03:29:06.209Z,41.00
2019-05-17T03:31:44.812Z,41.67
2019-05-17T03:34:16.589Z,44.97
2019-05-17T03:36:46.654Z,45.73
2019-05-17T03:39:16.610Z,44.43
2019-05-17T03:41:47.383Z,40.13
2019-05-17T03:44:25.150Z,42.53
2019-05-17T03:46:55.845Z,45.37
2019-05-17T03:49:26.507Z,39.73
2019-05-17T03:51:57.202Z,43.70
2019-05-17T03:54:28.993Z,42.83
2019-05-17T03:57:02.675Z,41.47
2019-05-17T03:59:33.699Z,44.93
2019-05-17T04:02:04.431Z,47.57
2019-05-17T04:04:35.112Z,43.67
2019-05-17T04:07:17.313Z,42.90
2019-05-17T04:09:48.048Z,43.57
2019-05-17T04:12:18.767Z,44.33
2019-05-17T04:14:53.341Z,45.63
2019-05-17T04:17:23.110Z,41.40
2019-05-17T04:19:55.850Z,44.73
2019-05-17T04:22:33.295Z,43.00
2019-05-17T04:25:05.265Z,43.10
2019-05-17T04:27:35.888Z,43.17
2019-05-17T04:30:07.978Z,42.10
2019-05-17T04:32:38.774Z,44.33
2019-05-17T04:35:17.302Z,41.33
2019-05-17T04:37:47.889Z,41.07
2019-05-17T04:40:18.699Z,43.93
2019-05-17T04:42:52.440Z,40.23
2019-05-17T04:45:28.512Z,40.83
2019-05-17T04:47:59.245Z,41.30
2019-05-17T04:50:33.251Z,40.77
2019-05-17T04:53:05.386Z,41.87
2019-05-17T04:55:35.938Z,38.57
2019-05-17T04:58:16.830Z,41.10
2019-05-17T05:00:47.412Z,38.03
2019-05-17T05:03:18.146Z,38.37
2019-05-17T05:05:48.824Z,42.13
2019-05-17T05:08:22.433Z,39.97
2019-05-17T05:10:53.690Z,41.37
2019-05-17T05:13:24.665Z,35.60
2019-05-17T05:15:55.211Z,39.40
2019-05-17T05:18:25.893Z,37.33
2019-05-17T05:21:03.371Z,38.83
2019-05-17T05:23:33.055Z,41.17
2019-05-17T05:26:03.835Z,35.73
2019-05-17T05:28:34.512Z,35.93
2019-05-17T05:31:05.091Z,34.33
2019-05-17T05:33:36.942Z,36.93
2019-05-17T05:36:17.562Z,32.23
2019-05-17T05:38:48.280Z,34.07
2019-05-17T05:41:19.040Z,33.47
2019-05-17T05:43:49.785Z,35.90
2019-05-17T05:46:22.611Z,31.40
2019-05-17T05:48:53.266Z,32.17
2019-05-17T05:51:23.998Z,33.73
2019-05-17T05:53:54.930Z,30.57
2019-05-17T05:56:25.679Z,32.10
2019-05-17T05:58:56.339Z,33.37
2019-05-17T06:01:27.033Z,29.47
2019-05-17T06:03:58.740Z,29.17
2019-05-17T06:06:29.338Z,29.07
2019-05-17T06:09:05.973Z,27.17
2019-05-17T06:11:36.576Z,27.37
2019-05-17T06:14:13.296Z,30.07
2019-05-17T06:16:43.877Z,27.63
2019-05-17T06:19:14.500Z,27.40
2019-05-17T06:22:02.784Z,26.63
2019-05-17T06:24:33.591Z,23.60
2019-05-17T06:27:04.632Z,24.37
2019-05-17T06:29:41.366Z,24.13
2019-05-17T06:32:11.888Z,23.17
2019-05-17T06:34:43.688Z,24.50
2019-05-17T06:37:27.441Z,23.70
2019-05-17T06:39:59.060Z,20.83
2019-05-17T06:42:40.364Z,20.70
2019-05-17T06:45:06.899Z,20.53
2019-05-17T06:47:37.506Z,20.40
2019-05-17T06:50:08.242Z,20.23
2019-05-17T06:52:38.915Z,18.50
2019-05-17T06:55:12.806Z,19.37
2019-05-17T06:57:45.991Z,19.23
2019-05-17T07:00:20.835Z,17.40
2019-05-17T07:02:53.448Z,16.87
2019-05-17T07:05:25.869Z,19.20
2019-05-17T07:07:56.470Z,19.43
2019-05-17T07:10:27.299Z,17.90
2019-05-17T07:12:59.630Z,19.37
2019-05-17T07:15:43.388Z,17.50
2019-05-17T07:18:03.507Z,19.43
2019-05-17T07:20:34.551Z,17.73
2019-05-17T07:23:05.134Z,20.27
2019-05-17T07:25:35.820Z,19.97
2019-05-17T07:28:06.504Z,18.40
2019-05-17T07:30:40.038Z,20.50
2019-05-17T07:33:11.070Z,20.63
2019-05-17T07:35:41.753Z,17.37
2019-05-17T07:38:12.434Z,16.97
2019-05-17T07:40:43.003Z,18.50
2019-05-17T07:43:14.839Z,17.57
2019-05-17T07:45:45.788Z,18.83
2019-05-17T07:48:16.519Z,19.00
2019-05-17T07:50:47.176Z,17.83
2019-05-17T07:53:19.781Z,16.00
2019-05-17T07:55:50.610Z,18.63
2019-05-17T07:58:21.622Z,16.97
2019-05-17T08:00:52.459Z,17.63
2019-05-17T08:03:30.381Z,16.97
2019-05-17T08:06:03.224Z,13.87
2019-05-17T08:08:34.003Z,14.83
2019-05-17T08:11:06.713Z,14.47
2019-05-17T08:13:39.682Z,15.23
2019-05-17T08:16:10.410Z,14.33
2019-05-17T08:18:41.104Z,13.83
2019-05-17T08:21:11.703Z,12.20
2019-05-17T08:23:42.385Z,14.77
2019-05-17T08:26:13.075Z,12.50
2019-05-17T08:28:43.714Z,12.43
2019-05-17T08:31:14.330Z,12.10
2019-05-17T08:33:45.064Z,12.53
2019-05-17T08:36:16.764Z,13.13
2019-05-17T08:38:47.335Z,10.43
2019-05-17T08:41:20.623Z,13.33
2019-05-17T08:43:51.450Z,10.83
2019-05-17T08:46:22.346Z,9.30
2019-05-17T08:49:09.788Z,10.83
2019-05-17T08:51:40.584Z,9.67
2019-05-17T08:54:11.277Z,9.50
2019-05-17T08:56:41.951Z,10.17
2019-05-17T08:59:12.614Z,9.00
2019-05-17T09:01:43.289Z,8.93
2019-05-17T09:04:13.998Z,10.30
2019-05-17T09:06:50.462Z,11.37
2019-05-17T09:09:21.269Z,8.33
2019-05-17T09:11:51.806Z,9.57
2019-05-17T09:14:22.407Z,11.60
2019-05-17T09:17:00.635Z,10.43
2019-05-17T09:19:31.310Z,10.47
2019-05-17T09:22:01.974Z,10.27
2019-05-17T09:24:32.685Z,9.40
2019-05-17T09:27:03.378Z,8.90
2019-05-17T09:29:40.205Z,9.37
2019-05-17T09:32:10.416Z,11.27
2019-05-17T09:34:41.090Z,10.63
2019-05-17T09:37:14.569Z,10.13
2019-05-17T09:39:44.105Z,10.43
2019-05-17T09:42:14.823Z,9.93
2019-05-17T09:44:46.459Z,10.20
2019-05-17T09:47:20.448Z,8.43
2019-05-17T09:49:50.417Z,10.27
2019-05-17T09:52:21.106Z,9.87
2019-05-17T09:54:51.690Z,9.63
2019-05-17T09:57:22.307Z,8.23
2019-05-17T09:59:55.905Z,8.37
2019-05-17T10:02:25.276Z,7.47
2019-05-17T10:05:07.227Z,8.17
2019-05-17T10:07:40.393Z,7.93
2019-05-17T10:10:10.903Z,8.50
2019-05-17T10:12:44.562Z,9.37
2019-05-17T10:15:16.194Z,10.10
2019-05-17T10:17:46.845Z,10.17
2019-05-17T10:20:20.017Z,8.77
2019-05-17T10:22:50.755Z,9.27
2019-05-17T10:25:21.387Z,9.53
2019-05-17T10:27:52.176Z,7.83
2019-05-17T10:30:22.846Z,7.80
2019-05-17T10:32:53.516Z,12.27
2019-05-17T10:35:24.229Z,7.40
2019-05-17T10:37:54.938Z,8.07
2019-05-17T10:40:25.669Z,8.07
2019-05-17T10:42:56.250Z,6.57
2019-05-17T10:45:26.825Z,8.40
2019-05-17T10:47:57.415Z,7.87
2019-05-17T10:50:29.778Z,7.00
2019-05-17T10:53:00.770Z,7.03
2019-05-17T10:55:31.517Z,5.73
2019-05-17T10:58:02.174Z,6.77
2019-05-17T11:00:32.853Z,7.40
2019-05-17T11:03:03.655Z,8.07
2019-05-17T11:05:34.337Z,9.10
2019-05-17T11:08:05.067Z,8.40
2019-05-17T11:10:35.810Z,6.07
2019-05-17T11:13:08.539Z,7.73
2019-05-17T11:15:39.136Z,6.03
2019-05-17T11:18:09.933Z,9.27
2019-05-17T11:20:40.596Z,6.33
2019-05-17T11:23:11.219Z,6.83
2019-05-17T11:25:45.880Z,8.43
2019-05-17T11:28:17.183Z,8.10
2019-05-17T11:30:47.770Z,5.73
2019-05-17T11:33:19.497Z,7.20
2019-05-17T11:35:50.135Z,7.33
2019-05-17T11:38:20.899Z,6.60
2019-05-17T11:40:54.587Z,6.63
2019-05-17T11:43:25.235Z,5.77
2019-05-17T11:45:55.921Z,7.50
2019-05-17T11:48:28.566Z,7.30
2019-05-17T11:51:00.165Z,5.97
2019-05-17T11:53:30.860Z,6.57
2019-05-17T11:56:02.758Z,5.63
2019-05-17T11:58:33.278Z,6.47
2019-05-17T12:01:04.010Z,7.03
2019-05-17T12:03:40.251Z,8.20
2019-05-17T12:06:22.998Z,8.07
2019-05-17T12:08:53.744Z,7.60
2019-05-17T12:11:27.356Z,6.80
2019-05-17T12:13:58.028Z,5.97
2019-05-17T12:16:28.593Z,7.87
2019-05-17T12:19:00.130Z,5.80
2019-05-17T12:21:30.865Z,7.07
2019-05-17T12:24:02.453Z,8.03
2019-05-17T12:26:33.131Z,12.77
2019-05-17T12:29:04.802Z,13.53
2019-05-17T12:31:37.524Z,6.70
2019-05-17T12:34:11.249Z,7.93
2019-05-17T12:36:41.902Z,7.30
2019-05-17T12:39:13.640Z,7.87
2019-05-17T12:41:44.343Z,10.30
2019-05-17T12:44:14.955Z,8.40
2019-05-17T12:46:45.711Z,10.00
2019-05-17T12:49:19.518Z,7.37
2019-05-17T12:51:50.003Z,9.60
2019-05-17T12:54:21.657Z,9.07
2019-05-17T12:56:53.317Z,8.67
2019-05-17T12:59:24.101Z,7.57
2019-05-17T13:01:54.813Z,7.47
2019-05-17T13:04:29.472Z,6.30
2019-05-17T13:07:00.152Z,7.67
2019-05-17T13:09:30.842Z,7.37
2019-05-17T13:12:01.465Z,7.30
2019-05-17T13:14:34.153Z,8.43
2019-05-17T13:17:11.547Z,7.10
2019-05-17T13:19:42.256Z,9.13
2019-05-17T13:22:13.018Z,8.93
2019-05-17T13:24:43.831Z,7.37
2019-05-17T13:27:14.481Z,9.00
2019-05-17T13:29:45.228Z,10.57
2019-05-17T13:32:15.925Z,10.40
2019-05-17T13:34:46.626Z,12.23
2019-05-17T13:37:24.276Z,9.80
2019-05-17T13:39:54.877Z,8.90
2019-05-17T13:42:31.519Z,10.03
2019-05-17T13:45:08.588Z,8.43
2019-05-17T13:47:39.168Z,11.50
2019-05-17T13:50:11.403Z,9.40
2019-05-17T13:52:42.138Z,10.60
2019-05-17T13:55:17.694Z,11.97
2019-05-17T13:57:48.337Z,9.77
2019-05-17T14:00:19.177Z,12.67
2019-05-17T14:02:49.850Z,11.50
2019-05-17T14:05:20.575Z,14.03
2019-05-17T14:07:53.154Z,15.17
2019-05-17T14:10:27.254Z,10.83
2019-05-17T14:12:56.239Z,12.90
2019-05-17T14:15:30.411Z,12.00
2019-05-17T14:18:01.100Z,12.03
2019-05-17T14:20:31.956Z,13.57
2019-05-17T14:23:03.129Z,10.30
2019-05-17T14:25:33.892Z,11.57
2019-05-17T14:28:11.840Z,11.47
2019-05-17T14:30:42.537Z,12.40
2019-05-17T14:33:13.313Z,12.87
2019-05-17T14:35:44.152Z,10.17
2019-05-17T14:38:14.857Z,10.47
2019-05-17T14:41:05.863Z,9.60
2019-05-17T14:43:19.032Z,12.70
2019-05-17T14:45:49.656Z,11.40
2019-05-17T14:48:20.308Z,10.60
2019-05-17T14:50:51.945Z,9.20
2019-05-17T14:53:22.567Z,10.60
2019-05-17T14:55:53.439Z,10.80
2019-05-17T14:58:31.978Z,13.07
2019-05-17T15:01:04.073Z,11.97
2019-05-17T15:03:43.027Z,14.80
2019-05-17T15:06:13.811Z,11.63
2019-05-17T15:08:44.570Z,14.80
2019-05-17T15:11:17.320Z,13.50
2019-05-17T15:13:48.907Z,12.77
2019-05-17T15:16:21.661Z,13.47
2019-05-17T15:18:52.376Z,15.03
2019-05-17T15:21:23.392Z,16.97
2019-05-17T15:23:56.135Z,13.27
2019-05-17T15:26:28.863Z,14.13
2019-05-17T15:29:05.507Z,13.93
2019-05-17T15:31:36.283Z,14.70
2019-05-17T15:34:06.939Z,13.67
2019-05-17T15:36:40.703Z,14.70
2019-05-17T15:39:13.323Z,19.17
2019-05-17T15:41:44.060Z,16.17
2019-05-17T15:44:14.755Z,17.03
2019-05-17T15:46:50.379Z,19.20
2019-05-17T15:49:20.986Z,17.60
2019-05-17T15:51:51.715Z,18.77
2019-05-17T15:54:22.306Z,17.67
2019-05-17T15:56:52.907Z,15.97
2019-05-17T15:59:24.547Z,16.80
2019-05-17T16:01:55.312Z,18.83
2019-05-17T16:04:27.960Z,17.37
2019-05-17T16:06:58.764Z,17.63
2019-05-17T16:09:36.300Z,16.60
2019-05-17T16:12:07.072Z,18.83
2019-05-17T16:14:37.744Z,16.80
2019-05-17T16:17:08.508Z,19.30
2019-05-17T16:19:39.200Z,18.17
2019-05-17T16:22:09.963Z,20.40
2019-05-17T16:24:41.685Z,19.60
2019-05-17T16:27:15.431Z,22.27
2019-05-17T16:29:46.126Z,18.00
2019-05-17T16:32:16.884Z,21.47
2019-05-17T16:34:50.847Z,22.37
2019-05-17T16:37:21.542Z,19.00
2019-05-17T16:39:52.202Z,21.93
2019-05-17T16:42:24.876Z,22.50
2019-05-17T16:44:55.540Z,17.90
2019-05-17T16:47:28.272Z,21.40
2019-05-17T16:49:58.901Z,21.73
2019-05-17T16:52:29.574Z,23.63
2019-05-17T16:55:00.337Z,20.67
2019-05-17T16:57:31.979Z,21.43
2019-05-17T17:00:02.904Z,24.00
2019-05-17T17:02:33.577Z,20.87
2019-05-17T17:05:04.254Z,24.87
2019-05-17T17:07:39.295Z,24.30
2019-05-17T17:10:15.079Z,25.07
2019-05-17T17:12:45.742Z,22.53
2019-05-17T17:15:16.657Z,24.10
2019-05-17T17:17:52.436Z,24.80
2019-05-17T17:20:23.056Z,24.90
2019-05-17T17:22:53.885Z,24.47
2019-05-17T17:25:25.485Z,27.20
2019-05-17T17:27:59.724Z,25.43
2019-05-17T17:30:35.366Z,23.67
2019-05-17T17:33:06.060Z,27.03
2019-05-17T17:35:36.667Z,25.40
2019-05-17T17:38:07.440Z,23.00
2019-05-17T17:40:40.101Z,26.10
2019-05-17T17:43:10.895Z,24.37
2019-05-17T17:45:41.600Z,24.03
2019-05-17T17:48:13.206Z,23.57
2019-05-17T17:50:44.456Z,25.53
2019-05-17T17:53:15.309Z,24.10
2019-05-17T17:55:45.965Z,24.70
2019-05-17T17:58:16.730Z,31.93
2019-05-17T18:00:49.447Z,24.17
2019-05-17T18:03:23.250Z,23.60
2019-05-17T18:05:53.775Z,24.00
2019-05-17T18:08:27.964Z,23.23
2019-05-17T18:10:58.799Z,22.27
2019-05-17T18:13:29.486Z,23.83
2019-05-17T18:16:08.575Z,22.90
2019-05-17T18:18:40.087Z,26.03
2019-05-17T18:21:10.795Z,26.73
2019-05-17T18:23:42.501Z,26.47
2019-05-17T18:26:15.137Z,21.47
2019-05-17T18:28:45.920Z,23.40
2019-05-17T18:31:16.577Z,24.40
2019-05-17T18:33:47.340Z,23.50
2019-05-17T18:36:18.940Z,23.33
2019-05-17T18:39:05.178Z,24.60
2019-05-17T18:41:39.500Z,24.97
2019-05-17T18:44:10.186Z,23.70
2019-05-17T18:46:40.863Z,24.47
2019-05-17T18:49:11.564Z,24.33
2019-05-17T18:51:42.233Z,26.77
2019-05-17T18:54:13.500Z,21.70
2019-05-17T18:56:44.178Z,23.80
2019-05-17T18:59:16.862Z,24.77
2019-05-17T19:01:47.598Z,23.43
2019-05-17T19:04:20.241Z,25.27
2019-05-17T19:06:52.091Z,25.50
2019-05-17T19:09:23.210Z,25.73
2019-05-17T19:11:54.883Z,26.20
2019-05-17T19:14:25.530Z,26.90
2019-05-17T19:16:56.551Z,22.70
2019-05-17T19:19:28.386Z,25.00
2019-05-17T19:22:02.197Z,23.73
2019-05-17T19:24:32.861Z,24.77
2019-05-17T19:27:03.465Z,24.57
2019-05-17T19:29:34.225Z,21.73
2019-05-17T19:32:07.656Z,26.27
2019-05-17T19:34:39.358Z,24.33
2019-05-17T19:37:12.131Z,22.07
2019-05-17T19:39:43.029Z,25.90
2019-05-17T19:42:15.984Z,24.53
2019-05-17T19:44:58.750Z,24.77
2019-05-17T19:47:32.059Z,24.70
2019-05-17T19:50:02.937Z,22.87
2019-05-17T19:52:33.612Z,23.77
2019-05-17T19:55:14.834Z,24.23
2019-05-17T19:57:45.626Z,22.63
2019-05-17T20:00:24.335Z,24.47
2019-05-17T20:02:56.031Z,22.43
2019-05-17T20:05:26.745Z,24.03
2019-05-17T20:07:57.614Z,22.83
2019-05-17T20:10:31.624Z,23.80
2019-05-17T20:13:12.747Z,25.97
2019-05-17T20:16:06.156Z,24.73
2019-05-17T20:18:37.078Z,22.37
2019-05-17T20:21:14.227Z,24.80
2019-05-17T20:23:51.626Z,25.57
2019-05-17T20:26:25.789Z,23.93
2019-05-17T20:28:56.843Z,23.53
2019-05-17T20:32:01.141Z,22.33
2019-05-17T20:34:32.169Z,21.17
2019-05-17T20:37:02.930Z,22.20
2019-05-17T20:39:34.618Z,20.47
2019-05-17T20:42:05.316Z,19.93
2019-05-17T20:44:36.260Z,19.83
2019-05-17T20:47:06.939Z,17.40
2019-05-17T20:49:48.151Z,19.80
2019-05-17T20:52:19.914Z,17.70
2019-05-17T20:54:52.680Z,17.57
2019-05-17T20:57:23.321Z,16.40
2019-05-17T20:59:54.057Z,16.93
2019-05-17T21:02:24.913Z,18.23
2019-05-17T21:04:55.872Z,17.67
2019-05-17T21:07:26.556Z,17.60
2019-05-17T21:09:58.444Z,18.83
2019-05-17T21:12:29.526Z,17.80
2019-05-17T21:15:00.384Z,17.03
2019-05-17T21:17:32.477Z,16.87
2019-05-17T21:20:03.274Z,17.33
2019-05-17T21:22:34.189Z,17.00
2019-05-17T21:25:05.178Z,15.90
2019-05-17T21:27:36.095Z,15.37
2019-05-17T21:30:07.580Z,14.67
2019-05-17T21:32:38.435Z,17.80
2019-05-17T21:35:11.358Z,15.50
2019-05-17T21:37:42.182Z,14.07
2019-05-17T21:40:13.339Z,16.27
2019-05-17T21:42:44.445Z,14.17
2019-05-17T21:45:15.494Z,16.47
2019-05-17T21:47:46.393Z,14.63
2019-05-17T21:50:17.399Z,15.27
2019-05-17T21:52:48.415Z,15.87
2019-05-17T21:55:19.232Z,13.20
2019-05-17T21:57:50.395Z,16.30
2019-05-17T22:01:00.373Z,14.60
2019-05-17T22:03:33.775Z,15.03
2019-05-17T22:06:04.857Z,14.47
2019-05-17T22:08:35.774Z,15.60
2019-05-17T22:11:06.787Z,14.97
2019-05-17T22:13:37.635Z,16.60
2019-05-17T22:16:19.138Z,15.37
2019-05-17T22:18:42.935Z,14.27
2019-05-17T22:21:14.473Z,13.77
2019-05-17T22:23:47.260Z,16.03
2019-05-17T22:26:18.080Z,13.80
2019-05-17T22:28:50.183Z,14.23
2019-05-17T22:31:21.199Z,15.80
2019-05-17T22:33:52.366Z,15.00
2019-05-17T22:36:23.960Z,17.60
2019-05-17T22:38:55.054Z,16.30
2019-05-17T22:41:25.782Z,15.10
2019-05-17T22:43:56.586Z,15.03
2019-05-17T22:46:35.586Z,17.23
2019-05-17T22:48:59.786Z,14.30
2019-05-17T22:51:30.381Z,15.63
2019-05-17T22:54:01.160Z,15.93
2019-05-17T22:56:32.788Z,18.50
2019-05-17T22:59:03.839Z,15.27
2019-05-17T23:01:34.921Z,16.13
2019-05-17T23:04:05.746Z,16.37
2019-05-17T23:06:36.413Z,17.67
2019-05-17T23:09:07.464Z,16.90
2019-05-17T23:11:38.079Z,16.80
2019-05-17T23:14:08.690Z,15.90
2019-05-17T23:16:51.234Z,18.57
2019-05-17T23:19:11.953Z,17.57
2019-05-17T23:21:42.626Z,15.73
2019-05-17T23:24:14.279Z,17.17
2019-05-17T23:26:46.066Z,14.63
2019-05-17T23:29:41.355Z,16.53
2019-05-17T23:32:12.098Z,15.27
2019-05-17T23:34:42.733Z,14.77
2019-05-17T23:37:13.303Z,16.53
2019-05-17T23:39:43.921Z,15.07
2019-05-17T23:42:14.661Z,14.63
2019-05-17T23:44:45.291Z,15.13
2019-05-17T23:47:16.073Z,14.23
2019-05-17T23:49:46.784Z,15.47
2019-05-17T23:52:17.417Z,14.13
2019-05-17T23:54:50.095Z,15.37
2019-05-17T23:57:22.717Z,14.50
2019-05-17T23:59:53.788Z,13.87
